sensor_id;sensor_type;location;lat;lon;timestamp;temperature;humidity
52669;DHT22;59898;52.786;6.892;2022-11-04T00:01:05;11.70;99.90
52669;DHT22;59898;52.786;6.892;2022-11-04T00:04:27;11.60;99.90
52669;DHT22;59898;52.786;6.892;2022-11-04T00:07:47;11.60;99.90
52669;DHT22;59898;52.786;6.892;2022-11-04T00:11:27;11.50;99.90
52669;DHT22;59898;52.786;6.892;2022-11-04T00:15:06;11.50;99.90
52669;DHT22;59898;52.786;6.892;2022-11-04T00:18:46;11.50;99.90
52669;DHT22;59898;52.786;6.892;2022-11-04T00:22:06;11.50;99.90
52669;DHT22;59898;52.786;6.892;2022-11-04T00:25:45;11.40;99.90
52669;DHT22;59898;52.786;6.892;2022-11-04T00:29:24;11.30;99.90
52669;DHT22;59898;52.786;6.892;2022-11-04T00:32:45;11.30;99.90
52669;DHT22;59898;52.786;6.892;2022-11-04T00:36:25;11.20;99.90
52669;DHT22;59898;52.786;6.892;2022-11-04T00:39:46;11.20;99.90
52669;DHT22;59898;52.786;6.892;2022-11-04T00:43:06;11.10;99.90
52669;DHT22;59898;52.786;6.892;2022-11-04T00:46:29;11.00;99.90
52669;DHT22;59898;52.786;6.892;2022-11-04T00:49:49;11.00;99.90
52669;DHT22;59898;52.786;6.892;2022-11-04T00:53:10;11.00;99.90
52669;DHT22;59898;52.786;6.892;2022-11-04T00:56:31;11.00;99.90
52669;DHT22;59898;52.786;6.892;2022-11-04T00:59:51;11.00;99.90
52669;DHT22;59898;52.786;6.892;2022-11-04T01:03:12;11.00;99.90
52669;DHT22;59898;52.786;6.892;2022-11-04T01:06:33;11.00;99.90
52669;DHT22;59898;52.786;6.892;2022-11-04T01:09:53;11.00;99.90
52669;DHT22;59898;52.786;6.892;2022-11-04T01:13:14;10.90;99.90
52669;DHT22;59898;52.786;6.892;2022-11-04T01:16:35;10.90;99.90
52669;DHT22;59898;52.786;6.892;2022-11-04T01:19:56;10.90;99.90
52669;DHT22;59898;52.786;6.892;2022-11-04T01:23:16;10.90;99.90
52669;DHT22;59898;52.786;6.892;2022-11-04T01:26:37;10.80;99.90
52669;DHT22;59898;52.786;6.892;2022-11-04T01:29:58;10.80;99.90
52669;DHT22;59898;52.786;6.892;2022-11-04T01:33:18;10.90;99.90
52669;DHT22;59898;52.786;6.892;2022-11-04T01:36:39;10.80;99.90
52669;DHT22;59898;52.786;6.892;2022-11-04T01:40:00;10.80;99.90
52669;DHT22;59898;52.786;6.892;2022-11-04T01:43:22;10.90;99.90
52669;DHT22;59898;52.786;6.892;2022-11-04T01:46:45;10.80;99.90
52669;DHT22;59898;52.786;6.892;2022-11-04T01:50:17;10.80;99.90
52669;DHT22;59898;52.786;6.892;2022-11-04T01:53:40;10.90;99.90
52669;DHT22;59898;52.786;6.892;2022-11-04T01:57:04;10.80;99.90
52669;DHT22;59898;52.786;6.892;2022-11-04T02:00:26;10.90;99.90
52669;DHT22;59898;52.786;6.892;2022-11-04T02:03:53;10.90;99.90
52669;DHT22;59898;52.786;6.892;2022-11-04T02:07:16;10.90;99.90
52669;DHT22;59898;52.786;6.892;2022-11-04T02:10:40;10.90;99.90
52669;DHT22;59898;52.786;6.892;2022-11-04T02:14:01;10.90;99.90
52669;DHT22;59898;52.786;6.892;2022-11-04T02:40:13;10.90;99.90
52669;DHT22;59898;52.786;6.892;2022-11-04T02:47:29;10.90;99.90
52669;DHT22;59898;52.786;6.892;2022-11-04T02:50:55;10.90;99.90
52669;DHT22;59898;52.786;6.892;2022-11-04T02:54:45;11.00;99.90
52669;DHT22;59898;52.786;6.892;2022-11-04T02:58:17;10.90;99.90
52669;DHT22;59898;52.786;6.892;2022-11-04T03:01:40;10.90;99.90
52669;DHT22;59898;52.786;6.892;2022-11-04T03:05:03;10.90;99.90
52669;DHT22;59898;52.786;6.892;2022-11-04T03:08:28;10.80;99.90
52669;DHT22;59898;52.786;6.892;2022-11-04T03:11:54;10.80;99.90
52669;DHT22;59898;52.786;6.892;2022-11-04T03:15:21;10.90;99.90
52669;DHT22;59898;52.786;6.892;2022-11-04T03:18:55;10.90;99.90
52669;DHT22;59898;52.786;6.892;2022-11-04T03:22:20;10.90;99.90
52669;DHT22;59898;52.786;6.892;2022-11-04T03:25:45;10.80;99.90
52669;DHT22;59898;52.786;6.892;2022-11-04T03:36:35;10.70;99.90
52669;DHT22;59898;52.786;6.892;2022-11-04T03:39:56;10.70;99.90
52669;DHT22;59898;52.786;6.892;2022-11-04T03:43:21;10.70;99.90
52669;DHT22;59898;52.786;6.892;2022-11-04T03:46:44;10.70;99.90
52669;DHT22;59898;52.786;6.892;2022-11-04T03:50:08;10.60;99.90
52669;DHT22;59898;52.786;6.892;2022-11-04T03:53:30;10.50;99.90
52669;DHT22;59898;52.786;6.892;2022-11-04T04:00:20;10.50;99.90
52669;DHT22;59898;52.786;6.892;2022-11-04T04:04:15;10.50;99.90
52669;DHT22;59898;52.786;6.892;2022-11-04T04:11:35;10.40;99.90
52669;DHT22;59898;52.786;6.892;2022-11-04T04:15:09;10.40;99.90
52669;DHT22;59898;52.786;6.892;2022-11-04T04:18:53;10.30;99.90
52669;DHT22;59898;52.786;6.892;2022-11-04T04:22:25;10.30;99.90
52669;DHT22;59898;52.786;6.892;2022-11-04T04:25:47;10.30;99.90
52669;DHT22;59898;52.786;6.892;2022-11-04T04:29:27;10.20;99.90
52669;DHT22;59898;52.786;6.892;2022-11-04T04:33:05;10.20;99.90
52669;DHT22;59898;52.786;6.892;2022-11-04T04:36:29;10.10;99.90
52669;DHT22;59898;52.786;6.892;2022-11-04T04:39:56;10.10;99.90
52669;DHT22;59898;52.786;6.892;2022-11-04T04:43:38;10.10;99.90
52669;DHT22;59898;52.786;6.892;2022-11-04T04:47:22;10.00;99.90
52669;DHT22;59898;52.786;6.892;2022-11-04T04:50:46;10.10;99.90
52669;DHT22;59898;52.786;6.892;2022-11-04T04:54:08;9.90;99.90
52669;DHT22;59898;52.786;6.892;2022-11-04T04:57:28;10.00;99.90
52669;DHT22;59898;52.786;6.892;2022-11-04T05:00:49;9.90;99.90
52669;DHT22;59898;52.786;6.892;2022-11-04T05:04:10;9.90;99.90
52669;DHT22;59898;52.786;6.892;2022-11-04T05:07:30;10.00;99.90
52669;DHT22;59898;52.786;6.892;2022-11-04T05:10:51;10.00;99.90
52669;DHT22;59898;52.786;6.892;2022-11-04T05:14:12;10.00;99.90
52669;DHT22;59898;52.786;6.892;2022-11-04T05:17:32;9.90;99.90
52669;DHT22;59898;52.786;6.892;2022-11-04T05:20:53;9.90;99.90
52669;DHT22;59898;52.786;6.892;2022-11-04T05:24:14;10.00;99.90
52669;DHT22;59898;52.786;6.892;2022-11-04T05:27:34;9.90;99.90
52669;DHT22;59898;52.786;6.892;2022-11-04T05:30:55;9.90;99.90
52669;DHT22;59898;52.786;6.892;2022-11-04T05:34:16;9.90;99.90
52669;DHT22;59898;52.786;6.892;2022-11-04T05:37:37;9.90;99.90
52669;DHT22;59898;52.786;6.892;2022-11-04T05:40:57;9.80;99.90
52669;DHT22;59898;52.786;6.892;2022-11-04T05:44:18;10.00;99.90
52669;DHT22;59898;52.786;6.892;2022-11-04T05:47:39;9.90;99.90
52669;DHT22;59898;52.786;6.892;2022-11-04T05:50:59;9.70;99.90
52669;DHT22;59898;52.786;6.892;2022-11-04T05:54:20;9.60;99.90
52669;DHT22;59898;52.786;6.892;2022-11-04T05:57:41;9.60;99.90
52669;DHT22;59898;52.786;6.892;2022-11-04T06:04:44;9.60;99.90
52669;DHT22;59898;52.786;6.892;2022-11-04T06:08:05;9.60;99.90
52669;DHT22;59898;52.786;6.892;2022-11-04T06:11:27;9.60;99.90
52669;DHT22;59898;52.786;6.892;2022-11-04T06:14:48;9.50;99.90
52669;DHT22;59898;52.786;6.892;2022-11-04T06:18:09;9.50;99.90
52669;DHT22;59898;52.786;6.892;2022-11-04T06:21:31;9.40;99.90
52669;DHT22;59898;52.786;6.892;2022-11-04T06:24:52;9.50;99.90
52669;DHT22;59898;52.786;6.892;2022-11-04T06:28:13;9.50;99.90
52669;DHT22;59898;52.786;6.892;2022-11-04T06:31:34;9.50;99.90
52669;DHT22;59898;52.786;6.892;2022-11-04T06:34:55;9.50;99.90
52669;DHT22;59898;52.786;6.892;2022-11-04T06:38:15;9.60;99.90
52669;DHT22;59898;52.786;6.892;2022-11-04T06:41:36;9.60;99.90
52669;DHT22;59898;52.786;6.892;2022-11-04T06:44:57;9.60;99.90
52669;DHT22;59898;52.786;6.892;2022-11-04T06:48:17;9.70;99.90
52669;DHT22;59898;52.786;6.892;2022-11-04T06:51:38;9.70;99.90
52669;DHT22;59898;52.786;6.892;2022-11-04T06:54:59;9.70;99.90
52669;DHT22;59898;52.786;6.892;2022-11-04T06:58:19;9.70;99.90
52669;DHT22;59898;52.786;6.892;2022-11-04T07:01:40;9.70;99.90
52669;DHT22;59898;52.786;6.892;2022-11-04T07:05:01;9.90;99.90
52669;DHT22;59898;52.786;6.892;2022-11-04T07:08:22;9.60;99.90
52669;DHT22;59898;52.786;6.892;2022-11-04T07:11:43;9.60;99.90
52669;DHT22;59898;52.786;6.892;2022-11-04T07:15:04;9.60;99.90
52669;DHT22;59898;52.786;6.892;2022-11-04T07:18:25;9.70;99.90
52669;DHT22;59898;52.786;6.892;2022-11-04T07:21:46;9.70;99.90
52669;DHT22;59898;52.786;6.892;2022-11-04T07:25:07;9.90;99.90
52669;DHT22;59898;52.786;6.892;2022-11-04T07:28:28;9.90;99.90
52669;DHT22;59898;52.786;6.892;2022-11-04T07:31:49;9.90;99.90
52669;DHT22;59898;52.786;6.892;2022-11-04T07:35:10;9.90;99.90
52669;DHT22;59898;52.786;6.892;2022-11-04T07:38:31;9.90;99.90
52669;DHT22;59898;52.786;6.892;2022-11-04T07:41:51;10.00;99.90
52669;DHT22;59898;52.786;6.892;2022-11-04T07:45:12;10.30;99.90
52669;DHT22;59898;52.786;6.892;2022-11-04T07:48:33;10.10;99.90
52669;DHT22;59898;52.786;6.892;2022-11-04T07:51:54;10.50;99.90
52669;DHT22;59898;52.786;6.892;2022-11-04T07:55:16;10.80;99.90
52669;DHT22;59898;52.786;6.892;2022-11-04T07:58:38;10.90;99.90
52669;DHT22;59898;52.786;6.892;2022-11-04T08:01:59;11.00;99.90
52669;DHT22;59898;52.786;6.892;2022-11-04T08:05:19;11.30;99.90
52669;DHT22;59898;52.786;6.892;2022-11-04T08:08:40;11.30;99.90
52669;DHT22;59898;52.786;6.892;2022-11-04T08:12:04;11.40;99.90
52669;DHT22;59898;52.786;6.892;2022-11-04T08:15:25;11.40;99.90
52669;DHT22;59898;52.786;6.892;2022-11-04T08:18:46;11.50;99.90
52669;DHT22;59898;52.786;6.892;2022-11-04T08:22:07;11.40;99.90
52669;DHT22;59898;52.786;6.892;2022-11-04T08:25:28;11.20;99.90
52669;DHT22;59898;52.786;6.892;2022-11-04T08:28:50;11.10;99.90
52669;DHT22;59898;52.786;6.892;2022-11-04T08:32:11;11.00;99.90
52669;DHT22;59898;52.786;6.892;2022-11-04T08:35:34;11.00;99.90
52669;DHT22;59898;52.786;6.892;2022-11-04T08:38:55;11.10;99.90
52669;DHT22;59898;52.786;6.892;2022-11-04T08:42:16;11.00;99.90
52669;DHT22;59898;52.786;6.892;2022-11-04T08:45:45;10.90;99.90
52669;DHT22;59898;52.786;6.892;2022-11-04T08:49:06;10.90;99.90
52669;DHT22;59898;52.786;6.892;2022-11-04T08:52:26;10.90;99.90
52669;DHT22;59898;52.786;6.892;2022-11-04T08:55:48;11.00;99.90
52669;DHT22;59898;52.786;6.892;2022-11-04T08:59:09;11.20;99.90
52669;DHT22;59898;52.786;6.892;2022-11-04T09:02:30;11.60;99.90
52669;DHT22;59898;52.786;6.892;2022-11-04T09:05:51;12.00;99.90
52669;DHT22;59898;52.786;6.892;2022-11-04T09:09:14;12.20;99.90
52669;DHT22;59898;52.786;6.892;2022-11-04T09:12:35;12.50;99.90
52669;DHT22;59898;52.786;6.892;2022-11-04T09:15:56;12.90;99.90
52669;DHT22;59898;52.786;6.892;2022-11-04T09:19:17;12.90;99.90
52669;DHT22;59898;52.786;6.892;2022-11-04T09:22:37;13.80;99.90
52669;DHT22;59898;52.786;6.892;2022-11-04T09:26:13;14.30;99.90
52669;DHT22;59898;52.786;6.892;2022-11-04T09:29:34;14.40;99.90
52669;DHT22;59898;52.786;6.892;2022-11-04T09:32:56;14.40;99.90
52669;DHT22;59898;52.786;6.892;2022-11-04T09:36:17;14.60;99.90
52669;DHT22;59898;52.786;6.892;2022-11-04T09:39:38;14.70;99.90
52669;DHT22;59898;52.786;6.892;2022-11-04T09:43:21;14.80;99.90
52669;DHT22;59898;52.786;6.892;2022-11-04T09:46:43;14.90;99.90
52669;DHT22;59898;52.786;6.892;2022-11-04T09:50:08;14.90;99.90
52669;DHT22;59898;52.786;6.892;2022-11-04T09:53:50;14.90;99.90
52669;DHT22;59898;52.786;6.892;2022-11-04T09:57:15;15.00;99.90
52669;DHT22;59898;52.786;6.892;2022-11-04T10:00:38;15.20;99.90
52669;DHT22;59898;52.786;6.892;2022-11-04T10:07:47;15.10;99.90
52669;DHT22;59898;52.786;6.892;2022-11-04T10:11:27;14.80;99.90
52669;DHT22;59898;52.786;6.892;2022-11-04T10:22:30;14.10;99.90
52669;DHT22;59898;52.786;6.892;2022-11-04T10:26:05;13.90;99.90
52669;DHT22;59898;52.786;6.892;2022-11-04T10:29:52;13.80;99.90
52669;DHT22;59898;52.786;6.892;2022-11-04T10:33:38;13.70;99.90
52669;DHT22;59898;52.786;6.892;2022-11-04T10:37:01;13.80;99.90
52669;DHT22;59898;52.786;6.892;2022-11-04T10:40:35;14.10;99.90
52669;DHT22;59898;52.786;6.892;2022-11-04T10:44:07;14.30;99.90
52669;DHT22;59898;52.786;6.892;2022-11-04T10:48:19;14.30;99.90
52669;DHT22;59898;52.786;6.892;2022-11-04T10:51:16;14.40;99.90
52669;DHT22;59898;52.786;6.892;2022-11-04T10:54:46;14.70;99.90
52669;DHT22;59898;52.786;6.892;2022-11-04T10:58:20;14.60;99.90
52669;DHT22;59898;52.786;6.892;2022-11-04T11:01:48;14.40;99.90
52669;DHT22;59898;52.786;6.892;2022-11-04T11:08:37;14.60;99.90
52669;DHT22;59898;52.786;6.892;2022-11-04T11:12:05;14.60;99.90
52669;DHT22;59898;52.786;6.892;2022-11-04T11:15:35;14.70;99.90
52669;DHT22;59898;52.786;6.892;2022-11-04T11:19:19;14.80;99.90
52669;DHT22;59898;52.786;6.892;2022-11-04T11:22:43;15.10;99.90
52669;DHT22;59898;52.786;6.892;2022-11-04T11:26:07;15.20;99.90
52669;DHT22;59898;52.786;6.892;2022-11-04T11:29:32;15.30;99.90
52669;DHT22;59898;52.786;6.892;2022-11-04T11:33:29;15.30;99.90
52669;DHT22;59898;52.786;6.892;2022-11-04T11:36:53;15.30;99.90
52669;DHT22;59898;52.786;6.892;2022-11-04T11:40:30;15.20;99.90
52669;DHT22;59898;52.786;6.892;2022-11-04T11:43:53;15.00;99.90
52669;DHT22;59898;52.786;6.892;2022-11-04T11:50:56;15.30;99.90
52669;DHT22;59898;52.786;6.892;2022-11-04T11:54:32;15.50;99.90
52669;DHT22;59898;52.786;6.892;2022-11-04T11:58:24;15.50;99.90
52669;DHT22;59898;52.786;6.892;2022-11-04T12:02:01;15.60;99.90
52669;DHT22;59898;52.786;6.892;2022-11-04T12:13:15;15.90;99.90
52669;DHT22;59898;52.786;6.892;2022-11-04T12:23:45;16.10;99.90
52669;DHT22;59898;52.786;6.892;2022-11-04T12:27:50;16.20;99.90
52669;DHT22;59898;52.786;6.892;2022-11-04T12:31:34;16.40;99.90
52669;DHT22;59898;52.786;6.892;2022-11-04T12:39:05;16.80;99.90
52669;DHT22;59898;52.786;6.892;2022-11-04T13:00:25;16.10;99.90
52669;DHT22;59898;52.786;6.892;2022-11-04T13:03:52;16.10;99.90
52669;DHT22;59898;52.786;6.892;2022-11-04T13:07:19;16.00;99.90
52669;DHT22;59898;52.786;6.892;2022-11-04T13:10:56;15.70;99.90
52669;DHT22;59898;52.786;6.892;2022-11-04T13:18:06;15.00;99.90
52669;DHT22;59898;52.786;6.892;2022-11-04T13:21:31;14.60;99.90
52669;DHT22;59898;52.786;6.892;2022-11-04T13:24:58;14.30;99.90
52669;DHT22;59898;52.786;6.892;2022-11-04T13:28:22;14.30;99.90
52669;DHT22;59898;52.786;6.892;2022-11-04T13:31:50;13.80;99.90
52669;DHT22;59898;52.786;6.892;2022-11-04T13:43:13;13.20;99.90
52669;DHT22;59898;52.786;6.892;2022-11-04T13:47:00;12.90;99.90
52669;DHT22;59898;52.786;6.892;2022-11-04T13:53:55;12.50;99.90
52669;DHT22;59898;52.786;6.892;2022-11-04T14:01:24;12.30;99.90
52669;DHT22;59898;52.786;6.892;2022-11-04T14:04:45;12.30;99.90
52669;DHT22;59898;52.786;6.892;2022-11-04T14:08:12;12.30;99.90
52669;DHT22;59898;52.786;6.892;2022-11-04T14:15:58;12.40;99.90
52669;DHT22;59898;52.786;6.892;2022-11-04T14:19:45;12.30;99.90
52669;DHT22;59898;52.786;6.892;2022-11-04T14:23:21;12.30;99.90
52669;DHT22;59898;52.786;6.892;2022-11-04T14:26:43;12.30;99.90
52669;DHT22;59898;52.786;6.892;2022-11-04T14:30:05;12.30;99.90
52669;DHT22;59898;52.786;6.892;2022-11-04T14:37:21;12.30;99.90
52669;DHT22;59898;52.786;6.892;2022-11-04T14:40:51;12.40;99.90
52669;DHT22;59898;52.786;6.892;2022-11-04T14:47:46;12.40;99.90
52669;DHT22;59898;52.786;6.892;2022-11-04T14:51:22;12.40;99.90
52669;DHT22;59898;52.786;6.892;2022-11-04T14:54:44;12.40;99.90
52669;DHT22;59898;52.786;6.892;2022-11-04T14:58:25;12.40;99.90
52669;DHT22;59898;52.786;6.892;2022-11-04T15:01:48;12.30;99.90
52669;DHT22;59898;52.786;6.892;2022-11-04T15:05:45;12.20;99.90
52669;DHT22;59898;52.786;6.892;2022-11-04T15:09:20;12.10;99.90
52669;DHT22;59898;52.786;6.892;2022-11-04T15:12:43;12.10;99.90
52669;DHT22;59898;52.786;6.892;2022-11-04T15:16:18;12.00;99.90
52669;DHT22;59898;52.786;6.892;2022-11-04T15:19:39;12.00;99.90
52669;DHT22;59898;52.786;6.892;2022-11-04T15:23:02;12.00;99.90
52669;DHT22;59898;52.786;6.892;2022-11-04T15:26:29;12.00;99.90
52669;DHT22;59898;52.786;6.892;2022-11-04T15:29:55;12.00;99.90
52669;DHT22;59898;52.786;6.892;2022-11-04T15:33:16;12.00;99.90
52669;DHT22;59898;52.786;6.892;2022-11-04T15:36:38;11.80;99.90
52669;DHT22;59898;52.786;6.892;2022-11-04T15:40:01;11.90;99.90
52669;DHT22;59898;52.786;6.892;2022-11-04T15:43:21;11.70;99.90
52669;DHT22;59898;52.786;6.892;2022-11-04T15:46:55;11.70;99.90
52669;DHT22;59898;52.786;6.892;2022-11-04T15:50:23;11.60;99.90
52669;DHT22;59898;52.786;6.892;2022-11-04T15:54:15;11.50;99.90
52669;DHT22;59898;52.786;6.892;2022-11-04T15:57:38;11.50;99.90
52669;DHT22;59898;52.786;6.892;2022-11-04T16:00:59;11.70;99.90
52669;DHT22;59898;52.786;6.892;2022-11-04T16:04:23;11.50;99.90
52669;DHT22;59898;52.786;6.892;2022-11-04T16:07:46;11.40;99.90
52669;DHT22;59898;52.786;6.892;2022-11-04T16:11:12;11.30;99.90
52669;DHT22;59898;52.786;6.892;2022-11-04T16:14:33;11.30;99.90
52669;DHT22;59898;52.786;6.892;2022-11-04T16:17:54;11.30;99.90
52669;DHT22;59898;52.786;6.892;2022-11-04T16:21:29;11.30;99.90
52669;DHT22;59898;52.786;6.892;2022-11-04T16:24:51;11.30;99.90
52669;DHT22;59898;52.786;6.892;2022-11-04T16:28:19;11.50;99.90
52669;DHT22;59898;52.786;6.892;2022-11-04T16:31:40;11.30;99.90
52669;DHT22;59898;52.786;6.892;2022-11-04T16:35:07;11.30;99.90
52669;DHT22;59898;52.786;6.892;2022-11-04T16:38:32;11.30;99.90
52669;DHT22;59898;52.786;6.892;2022-11-04T16:41:52;11.30;99.90
52669;DHT22;59898;52.786;6.892;2022-11-04T16:48:45;11.30;99.90
52669;DHT22;59898;52.786;6.892;2022-11-04T16:52:12;11.20;99.90
52669;DHT22;59898;52.786;6.892;2022-11-04T16:55:34;11.10;99.90
52669;DHT22;59898;52.786;6.892;2022-11-04T16:58:55;11.00;99.90
52669;DHT22;59898;52.786;6.892;2022-11-04T17:02:35;11.00;99.90
52669;DHT22;59898;52.786;6.892;2022-11-04T17:06:00;10.90;99.90
52669;DHT22;59898;52.786;6.892;2022-11-04T17:09:22;10.90;99.90
52669;DHT22;59898;52.786;6.892;2022-11-04T17:12:43;10.90;99.90
52669;DHT22;59898;52.786;6.892;2022-11-04T17:16:05;10.90;99.90
52669;DHT22;59898;52.786;6.892;2022-11-04T17:19:27;10.90;99.90
52669;DHT22;59898;52.786;6.892;2022-11-04T17:22:47;10.90;99.90
52669;DHT22;59898;52.786;6.892;2022-11-04T17:26:11;10.70;99.90
52669;DHT22;59898;52.786;6.892;2022-11-04T17:29:32;10.70;99.90
52669;DHT22;59898;52.786;6.892;2022-11-04T17:32:55;10.70;99.90
52669;DHT22;59898;52.786;6.892;2022-11-04T17:36:17;10.70;99.90
52669;DHT22;59898;52.786;6.892;2022-11-04T17:39:41;10.60;99.90
52669;DHT22;59898;52.786;6.892;2022-11-04T17:43:02;10.60;99.90
52669;DHT22;59898;52.786;6.892;2022-11-04T17:46:41;10.50;99.90
52669;DHT22;59898;52.786;6.892;2022-11-04T17:50:04;10.50;99.90
52669;DHT22;59898;52.786;6.892;2022-11-04T17:53:27;10.50;99.90
52669;DHT22;59898;52.786;6.892;2022-11-04T17:56:48;10.40;99.90
52669;DHT22;59898;52.786;6.892;2022-11-04T18:00:09;10.40;99.90
52669;DHT22;59898;52.786;6.892;2022-11-04T18:03:30;10.30;99.90
52669;DHT22;59898;52.786;6.892;2022-11-04T18:06:51;10.30;99.90
52669;DHT22;59898;52.786;6.892;2022-11-04T18:10:13;10.30;99.90
52669;DHT22;59898;52.786;6.892;2022-11-04T18:13:34;10.30;99.90
52669;DHT22;59898;52.786;6.892;2022-11-04T18:16:55;10.40;99.90
52669;DHT22;59898;52.786;6.892;2022-11-04T18:20:16;10.50;99.90
52669;DHT22;59898;52.786;6.892;2022-11-04T18:23:37;10.40;99.90
52669;DHT22;59898;52.786;6.892;2022-11-04T18:26:57;10.40;99.90
52669;DHT22;59898;52.786;6.892;2022-11-04T18:30:21;10.40;99.90
52669;DHT22;59898;52.786;6.892;2022-11-04T18:33:42;10.40;99.90
52669;DHT22;59898;52.786;6.892;2022-11-04T18:37:03;10.40;99.90
52669;DHT22;59898;52.786;6.892;2022-11-04T18:40:23;10.30;99.90
52669;DHT22;59898;52.786;6.892;2022-11-04T18:43:45;10.40;99.90
52669;DHT22;59898;52.786;6.892;2022-11-04T18:47:06;10.40;99.90
52669;DHT22;59898;52.786;6.892;2022-11-04T18:50:26;10.30;99.90
52669;DHT22;59898;52.786;6.892;2022-11-04T18:53:48;10.40;99.90
52669;DHT22;59898;52.786;6.892;2022-11-04T18:57:09;10.50;99.90
52669;DHT22;59898;52.786;6.892;2022-11-04T19:00:31;10.50;99.90
52669;DHT22;59898;52.786;6.892;2022-11-04T19:03:52;10.40;99.90
52669;DHT22;59898;52.786;6.892;2022-11-04T19:07:13;10.40;99.90
52669;DHT22;59898;52.786;6.892;2022-11-04T19:10:38;10.40;99.90
52669;DHT22;59898;52.786;6.892;2022-11-04T19:14:01;10.30;99.90
52669;DHT22;59898;52.786;6.892;2022-11-04T19:17:22;10.20;99.90
52669;DHT22;59898;52.786;6.892;2022-11-04T19:20:43;10.10;99.90
52669;DHT22;59898;52.786;6.892;2022-11-04T19:24:05;10.10;99.90
52669;DHT22;59898;52.786;6.892;2022-11-04T19:27:26;10.00;99.90
52669;DHT22;59898;52.786;6.892;2022-11-04T19:30:57;9.90;99.90
52669;DHT22;59898;52.786;6.892;2022-11-04T19:34:17;10.00;99.90
52669;DHT22;59898;52.786;6.892;2022-11-04T19:37:38;9.90;99.90
52669;DHT22;59898;52.786;6.892;2022-11-04T19:41:04;10.00;99.90
52669;DHT22;59898;52.786;6.892;2022-11-04T19:44:25;9.90;99.90
52669;DHT22;59898;52.786;6.892;2022-11-04T19:47:46;9.80;99.90
52669;DHT22;59898;52.786;6.892;2022-11-04T19:51:10;9.80;99.90
52669;DHT22;59898;52.786;6.892;2022-11-04T19:54:31;9.90;99.90
52669;DHT22;59898;52.786;6.892;2022-11-04T19:57:52;10.10;99.90
52669;DHT22;59898;52.786;6.892;2022-11-04T20:01:14;9.80;99.90
52669;DHT22;59898;52.786;6.892;2022-11-04T20:04:35;9.80;99.90
52669;DHT22;59898;52.786;6.892;2022-11-04T20:07:56;9.70;99.90
52669;DHT22;59898;52.786;6.892;2022-11-04T20:11:17;9.70;99.90
52669;DHT22;59898;52.786;6.892;2022-11-04T20:14:39;9.70;99.90
52669;DHT22;59898;52.786;6.892;2022-11-04T20:18:00;9.60;99.90
52669;DHT22;59898;52.786;6.892;2022-11-04T20:21:23;9.60;99.90
52669;DHT22;59898;52.786;6.892;2022-11-04T20:24:44;9.50;99.90
52669;DHT22;59898;52.786;6.892;2022-11-04T20:28:04;9.50;99.90
52669;DHT22;59898;52.786;6.892;2022-11-04T20:31:31;9.50;99.90
52669;DHT22;59898;52.786;6.892;2022-11-04T20:34:51;9.50;99.90
52669;DHT22;59898;52.786;6.892;2022-11-04T20:38:13;9.50;99.90
52669;DHT22;59898;52.786;6.892;2022-11-04T20:41:33;9.50;99.90
52669;DHT22;59898;52.786;6.892;2022-11-04T20:44:54;9.40;99.90
52669;DHT22;59898;52.786;6.892;2022-11-04T20:48:15;9.40;99.90
52669;DHT22;59898;52.786;6.892;2022-11-04T20:51:38;9.50;99.90
52669;DHT22;59898;52.786;6.892;2022-11-04T20:55:02;9.80;99.90
52669;DHT22;59898;52.786;6.892;2022-11-04T20:58:23;9.50;99.90
52669;DHT22;59898;52.786;6.892;2022-11-04T21:01:45;9.50;99.90
52669;DHT22;59898;52.786;6.892;2022-11-04T21:05:06;9.60;99.90
52669;DHT22;59898;52.786;6.892;2022-11-04T21:08:27;9.50;99.90
52669;DHT22;59898;52.786;6.892;2022-11-04T21:11:48;9.50;99.90
52669;DHT22;59898;52.786;6.892;2022-11-04T21:15:09;9.40;99.90
52669;DHT22;59898;52.786;6.892;2022-11-04T21:18:50;9.40;99.90
52669;DHT22;59898;52.786;6.892;2022-11-04T21:22:11;9.50;99.90
52669;DHT22;59898;52.786;6.892;2022-11-04T21:25:38;9.30;99.90
52669;DHT22;59898;52.786;6.892;2022-11-04T21:29:02;9.40;99.90
52669;DHT22;59898;52.786;6.892;2022-11-04T21:32:23;9.30;99.90
52669;DHT22;59898;52.786;6.892;2022-11-04T21:35:44;9.30;99.90
52669;DHT22;59898;52.786;6.892;2022-11-04T21:39:04;9.30;99.90
52669;DHT22;59898;52.786;6.892;2022-11-04T21:42:25;9.30;99.90
52669;DHT22;59898;52.786;6.892;2022-11-04T21:45:46;9.30;99.90
52669;DHT22;59898;52.786;6.892;2022-11-04T21:49:09;9.50;99.90
52669;DHT22;59898;52.786;6.892;2022-11-04T21:52:30;9.30;99.90
52669;DHT22;59898;52.786;6.892;2022-11-04T21:55:51;9.30;99.90
52669;DHT22;59898;52.786;6.892;2022-11-04T21:59:12;9.20;99.90
52669;DHT22;59898;52.786;6.892;2022-11-04T22:02:33;9.20;99.90
52669;DHT22;59898;52.786;6.892;2022-11-04T22:06:10;9.10;99.90
52669;DHT22;59898;52.786;6.892;2022-11-04T22:09:32;9.10;99.90
52669;DHT22;59898;52.786;6.892;2022-11-04T22:12:53;9.30;99.90
52669;DHT22;59898;52.786;6.892;2022-11-04T22:16:16;9.40;99.90
52669;DHT22;59898;52.786;6.892;2022-11-04T22:19:37;9.20;99.90
52669;DHT22;59898;52.786;6.892;2022-11-04T22:22:58;9.10;99.90
52669;DHT22;59898;52.786;6.892;2022-11-04T22:26:21;9.00;99.90
52669;DHT22;59898;52.786;6.892;2022-11-04T22:29:43;9.00;99.90
52669;DHT22;59898;52.786;6.892;2022-11-04T22:33:04;9.00;99.90
52669;DHT22;59898;52.786;6.892;2022-11-04T22:36:24;8.90;99.90
52669;DHT22;59898;52.786;6.892;2022-11-04T22:39:45;8.80;99.90
52669;DHT22;59898;52.786;6.892;2022-11-04T22:43:06;9.00;99.90
52669;DHT22;59898;52.786;6.892;2022-11-04T22:46:29;8.70;99.90
52669;DHT22;59898;52.786;6.892;2022-11-04T22:49:50;9.10;99.90
52669;DHT22;59898;52.786;6.892;2022-11-04T22:53:10;8.80;99.90
52669;DHT22;59898;52.786;6.892;2022-11-04T22:56:31;8.70;99.90
52669;DHT22;59898;52.786;6.892;2022-11-04T22:59:52;8.70;99.90
52669;DHT22;59898;52.786;6.892;2022-11-04T23:03:12;9.10;99.90
52669;DHT22;59898;52.786;6.892;2022-11-04T23:06:33;8.70;99.90
52669;DHT22;59898;52.786;6.892;2022-11-04T23:09:54;8.60;99.90
52669;DHT22;59898;52.786;6.892;2022-11-04T23:13:33;8.80;99.90
52669;DHT22;59898;52.786;6.892;2022-11-04T23:17:18;8.70;99.90
52669;DHT22;59898;52.786;6.892;2022-11-04T23:20:57;8.60;99.90
52669;DHT22;59898;52.786;6.892;2022-11-04T23:24:37;8.60;99.90
52669;DHT22;59898;52.786;6.892;2022-11-04T23:28:16;8.70;99.90
52669;DHT22;59898;52.786;6.892;2022-11-04T23:31:55;8.60;99.90
52669;DHT22;59898;52.786;6.892;2022-11-04T23:35:17;8.50;99.90
52669;DHT22;59898;52.786;6.892;2022-11-04T23:38:56;8.50;99.90
52669;DHT22;59898;52.786;6.892;2022-11-04T23:42:19;8.50;99.90
52669;DHT22;59898;52.786;6.892;2022-11-04T23:45:40;8.60;99.90
52669;DHT22;59898;52.786;6.892;2022-11-04T23:49:19;8.50;99.90
52669;DHT22;59898;52.786;6.892;2022-11-04T23:52:58;8.30;99.90
52669;DHT22;59898;52.786;6.892;2022-11-04T23:56:37;8.30;99.90
